Time;durP1;ratioP1;P1;durP2;ratioP2;P2;SDS_P1;SDS_P2;PMS_P1;PMS_P2;Temp;Humidity;BMP_temperature;BMP_pressure;BME280_temperature;BME280_humidity;BME280_pressure;Samples;Min_cycle;Max_cycle;Signal;HPM_P1;HPM_P2
2022/02/09 00:02:00;;;;;;;5.15;1.08;;;9.60;99.90;;;;;;5013432;28;20034;-70
2022/02/09 00:07:18;;;;;;;3.15;0.73;;;9.50;99.90;;;;;;5022021;28;20028;-70
2022/02/09 00:09:45;;;;;;;3.25;0.80;;;9.50;99.90;;;;;;5023030;28;20033;-70
2022/02/09 00:12:23;;;;;;;7.47;0.80;;;9.60;99.90;;;;;;5021647;28;20029;-70
2022/02/09 00:17:45;;;;;;;6.35;1.23;;;9.60;99.90;;;;;;5007871;28;20030;-71
2022/02/09 01:02:39;;;;;;;8.38;1.85;;;9.50;99.90;;;;;;5015907;28;20041;-69
2022/02/09 01:03:07;;;;;;;2.83;1.40;;;9.50;99.90;;;;;;5020904;28;20099;-70
2022/02/09 01:57:10;;;;;;;6.10;1.98;;;9.40;99.90;;;;;;5018954;28;20528;-70
2022/02/09 01:59:37;;;;;;;9.27;2.33;;;9.50;99.90;;;;;;5019332;28;20029;-70
2022/02/09 02:02:04;;;;;;;4.03;1.98;;;9.40;99.90;;;;;;5020335;28;20176;-70
2022/02/09 02:04:30;;;;;;;6.07;2.10;;;9.50;99.90;;;;;;5020278;28;20033;-71
2022/02/09 02:06:56;;;;;;;7.22;3.17;;;9.40;99.90;;;;;;5009429;28;20041;-71
2022/02/09 02:09:24;;;;;;;5.63;1.90;;;9.40;99.90;;;;;;5020947;28;20038;-70
2022/02/09 02:12:02;;;;;;;13.55;2.85;;;9.50;99.90;;;;;;5008991;28;20036;-71
2022/02/09 02:14:35;;;;;;;5.85;2.28;;;9.50;99.90;;;;;;5020444;28;20025;-71
2022/02/09 02:17:09;;;;;;;2.80;1.90;;;9.50;99.90;;;;;;5019884;28;20030;-70
2022/02/09 02:19:48;;;;;;;6.50;2.45;;;9.50;99.90;;;;;;5019128;28;20116;-70
2022/02/09 03:12:31;;;;;;;7.80;4.57;;;9.40;99.90;;;;;;5018496;28;20037;-70
2022/02/09 03:15:19;;;;;;;;;;;9.40;99.90;;;;;;5022970;28;20041;-70
2022/02/09 03:17:55;;;;;;;6.70;3.70;;;9.40;99.90;;;;;;5017624;28;19956;-70
2022/02/09 03:20:31;;;;;;;7.32;4.25;;;9.40;99.90;;;;;;5022390;28;20033;-70
2022/02/09 03:23:04;;;;;;;8.45;4.30;;;9.40;99.90;;;;;;5013994;28;20445;-70
2022/02/09 03:47:38;;;;;;;6.53;3.90;;;9.40;99.90;;;;;;5024662;28;20129;-70
2022/02/09 03:50:27;;;;;;;6.60;3.38;;;9.40;99.90;;;;;;5012643;28;20176;-70
2022/02/09 03:55:43;;;;;;;6.22;3.65;;;9.40;99.90;;;;;;5020910;28;20071;-70
2022/02/09 03:58:10;;;;;;;6.05;3.20;;;9.40;99.90;;;;;;5019846;28;20550;-72
2022/02/09 04:00:39;;;;;;;5.35;3.15;;;9.40;99.90;;;;;;5020457;28;20502;-70
2022/02/09 04:03:10;;;;;;;5.47;3.38;;;9.40;99.90;;;;;;5024364;28;20497;-70
2022/02/09 04:05:36;;;;;;;6.63;3.33;;;9.40;99.90;;;;;;5020193;28;20030;-70
2022/02/09 04:08:02;;;;;;;4.72;2.75;;;9.40;99.90;;;;;;5014032;28;20046;-70
2022/02/09 04:10:36;;;;;;;5.63;3.13;;;9.40;99.90;;;;;;5021263;28;20036;-70
2022/02/09 04:13:14;;;;;;;7.43;2.70;;;9.40;99.90;;;;;;5014091;28;20117;-70
2022/02/09 04:37:18;;;;;;;6.30;2.90;;;9.40;99.90;;;;;;5016716;28;20185;-70
2022/02/09 04:39:51;;;;;;;3.95;2.47;;;9.30;99.90;;;;;;5022792;28;20037;-70
2022/02/09 04:43:22;;;;;;;5.13;2.95;;;9.30;99.90;;;;;;5012504;28;20118;-72
2022/02/09 04:48:12;;;;;;;3.78;2.47;;;9.40;99.90;;;;;;5018600;28;20045;-70
2022/02/09 04:51:02;;;;;;;4.43;2.80;;;9.30;99.90;;;;;;5019263;28;20038;-70
2022/02/09 04:56:08;;;;;;;6.18;2.90;;;9.30;99.90;;;;;;5020452;28;20030;-69
2022/02/09 04:58:47;;;;;;;5.28;2.70;;;9.30;99.90;;;;;;5022650;28;20043;-70
2022/02/09 05:04:15;;;;;;;6.13;2.97;;;9.20;99.90;;;;;;5021946;28;20059;-68
2022/02/09 05:23:41;;;;;;;4.30;2.50;;;9.10;99.90;;;;;;4998744;28;20057;-63
2022/02/09 05:25:43;;;;;;;6.80;3.20;;;9.10;99.90;;;;;;4989120;28;20045;-63
2022/02/09 05:28:19;;;;;;;4.63;2.67;;;9.10;99.90;;;;;;4997482;28;20037;-63
2022/02/09 05:30:47;;;;;;;6.28;3.00;;;9.10;99.90;;;;;;4994485;28;20058;-61
2022/02/09 05:33:13;;;;;;;4.82;2.65;;;9.10;99.90;;;;;;5001142;28;20033;-63
2022/02/09 05:35:42;;;;;;;6.50;2.92;;;9.10;99.90;;;;;;4997161;28;20038;-63
2022/02/09 05:38:08;;;;;;;5.03;2.72;;;9.10;99.90;;;;;;5001651;28;20136;-64
2022/02/09 05:40:34;;;;;;;4.95;2.72;;;9.10;99.90;;;;;;4997969;28;20061;-63
2022/02/09 05:43:00;;;;;;;4.00;2.70;;;9.20;99.90;;;;;;5003800;28;20030;-63
2022/02/09 05:45:33;;;;;;;4.47;2.50;;;9.20;99.90;;;;;;4998125;28;20022;-63
2022/02/09 05:50:52;;;;;;;5.57;2.63;;;9.20;99.90;;;;;;4998024;28;20121;-63
2022/02/09 05:53:24;;;;;;;4.95;2.85;;;9.20;99.90;;;;;;4998292;28;20062;-64
2022/02/09 05:58:45;;;;;;;4.90;2.90;;;9.10;99.90;;;;;;4999815;28;20038;-63
2022/02/09 06:01:06;;;;;;;5.60;3.22;;;9.20;99.90;;;;;;4991969;28;20097;-64
2022/02/09 06:03:32;;;;;;;5.13;3.20;;;9.10;99.90;;;;;;4994262;28;20564;-64
2022/02/09 06:05:58;;;;;;;6.90;3.33;;;9.00;99.90;;;;;;4993562;28;20113;-64
2022/02/09 06:08:24;;;;;;;7.97;3.47;;;9.00;99.90;;;;;;4994500;28;20129;-62
2022/02/09 06:11:05;;;;;;;5.43;3.30;;;8.90;99.90;;;;;;4998129;28;20048;-63
2022/02/09 06:13:56;;;;;;;5.88;3.35;;;8.90;99.90;;;;;;4991738;28;20118;-64
2022/02/09 06:21:50;;;;;;;4.30;2.83;;;8.90;99.90;;;;;;4994429;28;20049;-63
2022/02/09 06:24:15;;;;;;;5.30;3.17;;;8.90;99.90;;;;;;4997991;28;20517;-63
2022/02/09 06:26:41;;;;;;;7.22;4.03;;;8.80;99.90;;;;;;4990193;28;20049;-64
2022/02/09 06:29:08;;;;;;;5.80;3.47;;;8.80;99.90;;;;;;4994866;28;20505;-63
2022/02/09 06:31:36;;;;;;;7.63;3.40;;;8.80;99.90;;;;;;4992666;28;20034;-64
2022/02/09 06:34:02;;;;;;;6.05;3.63;;;8.80;99.90;;;;;;4988628;28;20116;-64
2022/02/09 06:36:27;;;;;;;5.82;3.58;;;8.80;99.90;;;;;;4992776;28;20080;-65
2022/02/09 06:38:53;;;;;;;9.15;3.45;;;8.80;99.90;;;;;;4991336;28;20042;-63
2022/02/09 06:41:18;;;;;;;8.48;3.70;;;8.80;99.90;;;;;;4991474;28;20045;-64
2022/02/09 06:43:44;;;;;;;8.05;3.33;;;8.80;99.90;;;;;;4991666;28;20045;-63
2022/02/09 06:46:10;;;;;;;6.35;4.05;;;8.80;99.90;;;;;;4997064;28;20034;-64
2022/02/09 06:48:36;;;;;;;5.07;3.28;;;8.80;99.90;;;;;;4991225;28;20034;-65
2022/02/09 06:51:10;;;;;;;5.60;2.78;;;8.80;99.90;;;;;;4995250;28;21267;-65
2022/02/09 06:53:44;;;;;;;4.90;2.83;;;8.80;99.90;;;;;;4993739;28;20034;-64
2022/02/09 06:56:10;;;;;;;8.68;3.17;;;8.80;99.90;;;;;;4990528;28;20117;-63
2022/02/09 07:01:06;;;;;;;5.15;2.80;;;8.80;99.90;;;;;;4996125;28;20030;-64
2022/02/09 07:03:33;;;;;;;4.95;2.95;;;8.80;99.90;;;;;;4991611;28;20038;-63
2022/02/09 07:05:58;;;;;;;6.60;3.45;;;8.80;99.90;;;;;;4988231;28;20570;-64
2022/02/09 07:08:24;;;;;;;6.97;3.53;;;8.80;99.90;;;;;;4995383;28;20121;-63
2022/02/09 07:10:49;;;;;;;7.10;3.25;;;8.80;99.90;;;;;;4994198;28;20042;-62
2022/02/09 07:13:15;;;;;;;7.53;3.10;;;8.80;99.90;;;;;;4991798;28;20045;-64
2022/02/09 07:15:46;;;;;;;5.78;2.90;;;8.80;99.90;;;;;;4994818;28;20038;-63
2022/02/09 07:18:13;;;;;;;4.80;2.63;;;8.80;99.90;;;;;;4997006;28;20852;-63
2022/02/09 07:20:56;;;;;;;6.85;3.08;;;8.90;99.90;;;;;;4993129;28;20066;-63
2022/02/09 07:23:41;;;;;;;6.25;3.25;;;8.90;99.90;;;;;;4993120;28;20171;-64
2022/02/09 07:26:11;;;;;;;5.68;3.03;;;8.80;99.90;;;;;;4993127;28;20035;-63
2022/02/09 07:28:38;;;;;;;6.82;2.90;;;8.80;99.90;;;;;;4998712;28;20497;-64
2022/02/09 07:31:07;;;;;;;5.80;3.30;;;8.80;99.90;;;;;;4994769;28;20442;-63
2022/02/09 07:33:34;;;;;;;5.55;2.88;;;8.80;99.90;;;;;;4995449;28;20034;-63
2022/02/09 07:35:59;;;;;;;6.80;3.20;;;8.80;99.90;;;;;;4998827;28;20045;-64
2022/02/09 07:38:26;;;;;;;5.38;3.28;;;8.80;99.90;;;;;;4993748;28;20038;-64
2022/02/09 07:40:56;;;;;;;5.50;3.17;;;8.80;99.90;;;;;;4993549;28;20030;-64
2022/02/09 07:43:27;;;;;;;10.55;3.30;;;8.80;99.90;;;;;;4999078;28;20030;-64
2022/02/09 07:48:40;;;;;;;5.70;3.08;;;8.80;99.90;;;;;;4998045;28;20035;-64
2022/02/09 07:54:00;;;;;;;3.50;2.33;;;8.90;99.90;;;;;;5000832;28;20116;-63
2022/02/09 07:56:38;;;;;;;5.35;2.92;;;8.90;99.90;;;;;;4997943;28;20038;-63
2022/02/09 07:59:06;;;;;;;4.97;2.40;;;8.90;99.90;;;;;;4998501;28;20509;-64
2022/02/09 08:01:32;;;;;;;5.20;2.75;;;8.90;99.90;;;;;;4993094;28;20081;-63
2022/02/09 08:03:58;;;;;;;6.53;2.60;;;8.80;99.90;;;;;;5002619;28;21499;-64
2022/02/09 08:06:24;;;;;;;5.05;2.85;;;8.90;99.90;;;;;;4994278;28;20033;-64
2022/02/09 08:08:56;;;;;;;4.45;3.00;;;8.90;99.90;;;;;;4998221;28;20656;-65
2022/02/09 08:30:03;;;;;;;5.43;3.22;;;9.00;99.90;;;;;;4994890;28;20038;-63
2022/02/09 08:34:59;;;;;;;5.65;3.60;;;9.00;99.90;;;;;;4996945;28;20038;-62
2022/02/09 08:37:25;;;;;;;8.35;3.60;;;9.00;99.90;;;;;;4993694;28;20030;-65
2022/02/09 08:39:54;;;;;;;4.65;2.95;;;9.10;99.90;;;;;;4993683;28;20093;-63
2022/02/09 08:42:20;;;;;;;6.72;3.33;;;9.10;99.90;;;;;;4999322;28;20026;-64
2022/02/09 08:44:45;;;;;;;6.95;3.88;;;9.10;99.90;;;;;;4994841;28;20568;-61
2022/02/09 08:47:12;;;;;;;4.57;2.75;;;9.20;99.90;;;;;;4993421;28;20101;-62
2022/02/09 08:49:38;;;;;;;7.07;3.85;;;9.10;99.90;;;;;;4996038;28;20120;-63
2022/02/09 08:52:05;;;;;;;5.40;2.90;;;9.20;99.90;;;;;;4997115;28;20041;-64
2022/02/09 08:54:31;;;;;;;7.05;3.30;;;9.30;99.90;;;;;;4990753;28;20056;-64
2022/02/09 08:56:58;;;;;;;4.78;3.00;;;9.30;99.90;;;;;;4993889;28;20049;-62
2022/02/09 08:59:27;;;;;;;4.25;2.80;;;9.40;99.90;;;;;;4996552;28;20418;-64
2022/02/09 09:02:02;;;;;;;5.05;2.85;;;9.30;99.90;;;;;;4993627;28;20725;-63
2022/02/09 09:04:35;;;;;;;6.20;3.00;;;9.30;99.90;;;;;;4990883;28;20038;-63
2022/02/09 09:07:12;;;;;;;5.40;3.05;;;9.30;99.90;;;;;;4996176;28;20065;-64
2022/02/09 10:01:37;;;;;;;5.32;3.03;;;10.00;99.90;;;;;;4993859;28;20030;-63
2022/02/09 10:04:31;;;;;;;6.20;3.13;;;10.10;99.90;;;;;;4993648;28;20070;-64
2022/02/09 10:32:39;;;;;;;4.30;2.78;;;10.60;99.90;;;;;;4996837;28;20133;-63
2022/02/09 10:35:11;;;;;;;5.15;2.80;;;10.50;99.90;;;;;;4994377;28;20499;-63
2022/02/09 10:37:36;;;;;;;6.30;3.70;;;10.50;99.90;;;;;;4990823;28;20027;-64
2022/02/09 10:40:10;;;;;;;7.63;3.45;;;10.50;99.90;;;;;;4994888;28;20033;-63
2022/02/09 10:42:45;;;;;;;6.43;3.05;;;10.60;99.90;;;;;;4995322;28;20030;-63
2022/02/09 10:48:05;;;;;;;8.07;3.88;;;10.60;99.90;;;;;;4989757;28;20419;-65
2022/02/09 10:50:36;;;;;;;7.20;3.55;;;10.60;99.90;;;;;;4992135;28;20058;-64
2022/02/09 10:53:05;;;;;;;5.70;2.78;;;10.60;99.90;;;;;;5000405;28;20054;-64
2022/02/09 10:55:43;;;;;;;6.72;3.65;;;10.80;99.90;;;;;;4996011;28;20066;-64
2022/02/09 10:58:10;;;;;;;5.32;3.28;;;11.00;99.90;;;;;;4994026;28;20066;-63
2022/02/09 11:00:37;;;;;;;7.25;3.92;;;11.10;99.90;;;;;;4996171;28;20105;-64
2022/02/09 11:03:03;;;;;;;5.95;3.13;;;11.10;99.90;;;;;;4999795;28;20058;-63
2022/02/09 11:05:29;;;;;;;5.18;2.95;;;11.10;99.90;;;;;;4996091;28;20080;-63
2022/02/09 11:07:55;;;;;;;5.32;3.05;;;11.30;99.90;;;;;;4996369;28;20042;-64
2022/02/09 11:10:22;;;;;;;8.02;3.20;;;11.40;99.90;;;;;;5012305;23;20077;-64
2022/02/09 11:12:48;;;;;;;5.32;3.05;;;11.50;99.90;;;;;;5011680;28;20056;-65
2022/02/09 11:15:18;;;;;;;6.03;3.25;;;11.60;99.90;;;;;;5008836;28;20030;-63
2022/02/09 11:17:47;;;;;;;7.68;3.05;;;11.60;99.90;;;;;;5013129;28;20497;-64
2022/02/09 11:20:20;;;;;;;7.65;3.03;;;11.70;99.90;;;;;;5018043;28;20469;-65
2022/02/09 11:22:46;;;;;;;6.20;3.45;;;11.70;99.90;;;;;;5014812;28;20034;-66
2022/02/09 11:25:20;;;;;;;5.78;2.95;;;11.70;99.90;;;;;;5028579;22;20045;-69
2022/02/09 11:27:55;;;;;;;5.65;3.25;;;11.70;99.90;;;;;;5024083;28;20030;-68
2022/02/09 11:30:30;;;;;;;4.45;2.67;;;11.70;99.90;;;;;;5014754;28;20029;-71
2022/02/09 11:36:17;;;;;;;5.80;3.38;;;11.50;99.90;;;;;;5008313;28;20061;-69
2022/02/09 11:38:46;;;;;;;7.72;3.63;;;11.60;99.90;;;;;;5008775;28;20038;-70
2022/02/09 11:41:19;;;;;;;5.15;2.85;;;11.60;99.90;;;;;;5016733;28;20043;-70
2022/02/09 11:43:52;;;;;;;6.15;3.13;;;11.50;99.90;;;;;;5015590;28;20033;-69
2022/02/09 11:46:51;;;;;;;8.18;3.42;;;11.60;99.90;;;;;;5011375;28;20041;-70
2022/02/09 11:58:16;;;;;;;8.25;3.80;;;11.30;99.90;;;;;;5015614;28;20036;-69
2022/02/09 12:00:50;;;;;;;6.72;3.75;;;11.30;99.90;;;;;;5013134;28;20041;-69
2022/02/09 12:09:33;;;;;;;9.05;4.78;;;11.10;99.90;;;;;;5015261;28;20037;-70
2022/02/09 12:12:04;;;;;;;5.85;3.22;;;11.10;99.90;;;;;;5016276;28;20037;-69
2022/02/09 12:15:11;;;;;;;7.38;3.97;;;11.10;99.90;;;;;;5015523;28;20125;-70
2022/02/09 12:20:33;;;;;;;7.22;3.65;;;11.00;99.90;;;;;;5011704;28;20068;-69
2022/02/09 12:23:11;;;;;;;6.75;3.70;;;11.10;99.90;;;;;;5017169;28;20047;-70
2022/02/09 12:25:48;;;;;;;8.25;4.00;;;11.20;99.90;;;;;;5017412;28;20478;-69
2022/02/09 12:28:16;;;;;;;9.15;4.10;;;11.10;99.90;;;;;;5013968;28;20029;-70
2022/02/09 12:30:42;;;;;;;8.98;4.30;;;11.10;99.90;;;;;;5010171;28;20050;-67
2022/02/09 12:33:23;;;;;;;5.95;3.65;;;11.00;99.90;;;;;;5018384;28;20493;-70
2022/02/09 12:35:49;;;;;;;8.43;3.92;;;11.00;99.90;;;;;;5016087;28;20046;-68
2022/02/09 12:38:26;;;;;;;7.50;3.53;;;10.90;99.90;;;;;;5012567;28;20099;-69
2022/02/09 12:41:14;;;;;;;8.23;3.85;;;10.90;99.90;;;;;;5014719;28;20729;-69
2022/02/09 12:43:47;;;;;;;6.03;3.63;;;10.90;99.90;;;;;;5016289;28;20042;-70
2022/02/09 12:46:13;;;;;;;8.63;3.72;;;10.90;99.90;;;;;;5016253;28;20057;-70
2022/02/09 12:48:39;;;;;;;10.43;3.58;;;10.80;99.90;;;;;;5013922;28;20069;-70
2022/02/09 12:51:05;;;;;;;8.60;3.70;;;10.80;99.90;;;;;;5013632;28;20204;-70
2022/02/09 12:53:31;;;;;;;7.07;4.13;;;10.70;99.90;;;;;;5018497;28;20040;-71
2022/02/09 12:55:57;;;;;;;7.60;4.35;;;10.70;99.90;;;;;;5013741;28;20058;-67
2022/02/09 12:58:23;;;;;;;7.00;3.53;;;10.70;99.90;;;;;;5010911;28;20119;-69
2022/02/09 13:00:50;;;;;;;7.97;4.00;;;10.60;99.90;;;;;;5015280;28;20408;-69
2022/02/09 13:03:21;;;;;;;6.70;3.65;;;10.60;99.90;;;;;;5019018;28;20042;-70
2022/02/09 13:05:51;;;;;;;9.50;3.30;;;10.60;99.90;;;;;;5013051;28;20034;-70
2022/02/09 13:08:19;;;;;;;7.68;3.40;;;10.70;99.90;;;;;;5012345;28;20486;-69
2022/02/09 13:10:45;;;;;;;7.35;3.38;;;10.70;99.90;;;;;;5017613;28;20022;-71
2022/02/09 13:13:23;;;;;;;9.23;3.95;;;10.60;99.90;;;;;;5017327;28;20624;-70
2022/02/09 13:16:04;;;;;;;6.28;3.20;;;10.60;99.90;;;;;;5014583;28;20030;-69
2022/02/09 14:19:28;;;;;;;9.27;2.92;;;10.30;99.90;;;;;;5018820;28;20090;-70
2022/02/09 14:35:50;;;;;;;11.32;3.38;;;10.30;99.90;;;;;;5020851;28;20072;-72
2022/02/09 14:54:28;;;;;;;5.88;2.50;;;10.20;99.90;;;;;;5017694;28;20038;-69
2022/02/09 14:57:00;;;;;;;;;;;10.10;99.90;;;;;;5016911;28;20065;-69
2022/02/09 15:02:16;;;;;;;6.63;2.92;;;10.00;99.90;;;;;;5015033;28;20065;-69
2022/02/09 15:09:54;;;;;;;6.43;3.00;;;10.00;99.90;;;;;;5016814;28;20124;-69
2022/02/09 15:12:42;;;;;;;9.63;3.85;;;9.90;99.90;;;;;;5018235;28;20482;-69
2022/02/09 15:15:25;;;;;;;6.07;3.25;;;9.90;99.90;;;;;;5012915;28;20045;-68
2022/02/09 15:23:00;;;;;;;11.95;3.72;;;9.80;99.90;;;;;;5021078;28;20026;-68
2022/02/09 15:25:31;;;;;;;5.72;3.40;;;9.80;99.90;;;;;;5017333;28;20073;-69
2022/02/09 15:28:00;;;;;;;8.25;4.18;;;9.70;99.90;;;;;;5019115;28;20552;-67
2022/02/09 15:30:28;;;;;;;12.55;5.25;;;9.70;99.90;;;;;;5014770;28;20111;-69
2022/02/09 15:32:55;;;;;;;11.70;4.15;;;9.70;99.90;;;;;;5016609;28;20501;-69
2022/02/09 15:43:16;;;;;;;14.00;4.40;;;9.60;99.90;;;;;;5023674;28;20161;-68
2022/02/09 15:59:38;;;;;;;11.80;4.60;;;9.50;99.90;;;;;;5022616;28;20192;-68
2022/02/09 16:10:34;;;;;;;13.15;5.10;;;9.40;99.90;;;;;;5020667;28;20097;-69
2022/02/09 16:23:45;;;;;;;10.35;3.95;;;9.40;99.90;;;;;;5017467;28;20040;-68
2022/02/09 16:44:48;;;;;;;14.73;5.30;;;9.20;99.90;;;;;;5019217;28;20045;-68
2022/02/09 16:50:05;;;;;;;13.63;3.70;;;9.20;99.90;;;;;;5019658;28;20048;-66
2022/02/09 16:52:43;;;;;;;12.38;4.35;;;9.20;99.90;;;;;;5022726;28;20129;-68
2022/02/09 17:19:18;;;;;;;9.05;4.32;;;9.30;99.90;;;;;;5018620;28;20409;-67
2022/02/09 17:21:43;;;;;;;13.90;5.50;;;9.30;99.90;;;;;;5014968;28;20038;-68
2022/02/09 17:24:09;;;;;;;11.32;5.28;;;9.20;99.90;;;;;;4997384;28;20038;-66
2022/02/09 17:26:34;;;;;;;13.63;5.35;;;9.20;99.90;;;;;;4995476;28;20034;-66
2022/02/09 17:29:02;;;;;;;14.30;5.35;;;9.30;99.90;;;;;;5003700;28;20044;-67
2022/02/09 17:32:24;;;;;;;12.10;5.15;;;9.30;99.90;;;;;;4997133;28;20058;-66
2022/02/09 17:37:10;;;;;;;13.60;5.05;;;9.20;99.90;;;;;;4995241;28;20049;-68
2022/02/09 17:53:25;;;;;;;17.35;6.82;;;9.20;99.90;;;;;;4997957;28;20081;-68
2022/02/09 17:58:24;;;;;;;15.88;6.57;;;9.20;99.90;;;;;;4997605;28;20030;-67
2022/02/09 18:00:50;;;;;;;15.48;7.57;;;9.20;99.90;;;;;;4995293;28;20525;-68
2022/02/09 18:03:16;;;;;;;20.27;6.55;;;9.10;99.90;;;;;;4998255;28;20046;-67
2022/02/09 18:05:52;;;;;;;16.25;6.00;;;9.10;99.90;;;;;;4998255;28;20049;-68
2022/02/09 18:08:34;;;;;;;15.82;6.15;;;9.10;99.90;;;;;;5000458;28;20398;-68
2022/02/09 18:29:27;;;;;;;21.25;6.10;;;9.00;99.90;;;;;;4993122;28;20038;-68
2022/02/09 19:03:54;;;;;;;10.55;4.15;;;9.00;99.90;;;;;;4996753;28;20042;-67
2022/02/09 19:06:27;;;;;;;15.98;5.70;;;9.00;99.90;;;;;;4992804;28;20120;-66
2022/02/09 19:14:10;;;;;;;10.30;5.07;;;8.90;99.90;;;;;;4993344;28;20057;-67
2022/02/09 19:14:46;;;;;;;13.55;5.07;;;9.00;99.90;;;;;;4997992;28;20042;-68
2022/02/09 19:20:06;;;;;;;14.25;5.57;;;8.90;99.90;;;;;;4997407;28;20414;-68
2022/02/09 19:30:42;;;;;;;18.02;7.28;;;8.90;99.90;;;;;;5001963;28;20401;-68
2022/02/09 19:49:10;;;;;;;14.45;6.00;;;8.80;99.90;;;;;;4998980;28;19944;-69
2022/02/09 19:51:44;;;;;;;18.08;7.72;;;8.90;99.90;;;;;;4999050;28;20026;-68
2022/02/09 19:56:59;;;;;;;13.90;5.97;;;8.90;99.90;;;;;;4999533;28;20398;-68
2022/02/09 19:59:24;;;;;;;19.65;6.57;;;8.90;99.90;;;;;;4998139;28;20054;-65
2022/02/09 20:01:50;;;;;;;15.38;5.80;;;8.90;99.90;;;;;;5000686;28;20072;-68
2022/02/09 20:04:19;;;;;;;16.75;5.05;;;8.90;99.90;;;;;;5000037;28;20038;-66
2022/02/09 20:06:44;;;;;;;19.90;5.78;;;8.90;99.90;;;;;;4997933;28;20057;-67
2022/02/09 20:09:10;;;;;;;13.65;5.88;;;8.90;99.90;;;;;;5002438;28;20030;-67
2022/02/09 20:11:38;;;;;;;16.35;6.20;;;8.90;99.90;;;;;;4999267;28;20041;-67
2022/02/09 20:14:04;;;;;;;14.38;6.05;;;8.90;99.90;;;;;;4999584;28;20038;-67
2022/02/09 20:16:30;;;;;;;17.85;5.78;;;8.90;99.90;;;;;;4999198;28;20048;-68
2022/02/09 20:18:58;;;;;;;16.67;6.10;;;8.90;99.90;;;;;;5002048;28;20038;-66
2022/02/09 20:21:25;;;;;;;16.45;5.35;;;8.90;99.90;;;;;;4998166;28;20507;-65
2022/02/09 20:23:52;;;;;;;13.68;5.25;;;8.90;99.90;;;;;;5002223;28;20070;-68
2022/02/09 20:26:19;;;;;;;15.93;5.45;;;8.90;99.90;;;;;;4998242;28;20450;-67
2022/02/09 20:28:53;;;;;;;10.80;4.80;;;8.90;99.90;;;;;;5002775;28;20044;-67
2022/02/09 20:31:24;;;;;;;12.05;5.45;;;8.90;99.90;;;;;;5004210;28;20038;-67
2022/02/09 20:33:55;;;;;;;10.95;5.00;;;8.90;99.90;;;;;;5001259;28;20042;-68
2022/02/09 20:36:21;;;;;;;15.48;5.35;;;8.90;99.90;;;;;;4999309;28;20045;-68
2022/02/09 20:38:52;;;;;;;10.90;4.55;;;8.90;99.90;;;;;;5000661;28;20093;-65
2022/02/09 20:41:19;;;;;;;;;;;8.90;99.90;;;;;;4994125;28;20494;-67
2022/02/09 20:44:06;;;;;;;15.43;5.28;;;8.90;99.90;;;;;;4995491;28;19922;-67
2022/02/09 20:46:33;;;;;;;12.35;4.22;;;8.90;99.90;;;;;;5020357;28;20054;-66
2022/02/09 20:49:00;;;;;;;14.55;4.95;;;8.90;99.90;;;;;;5003895;28;20064;-67
2022/02/09 20:51:26;;;;;;;13.77;5.15;;;8.90;99.90;;;;;;5000417;28;20050;-64
2022/02/09 20:53:52;;;;;;;16.65;4.85;;;8.90;99.90;;;;;;5002251;28;20398;-65
2022/02/09 20:56:18;;;;;;;10.88;4.80;;;8.90;99.90;;;;;;4999064;28;20045;-67
2022/02/09 20:58:45;;;;;;;9.38;4.57;;;8.90;99.90;;;;;;4996550;28;20034;-68
2022/02/09 21:01:16;;;;;;;14.60;5.15;;;8.90;99.90;;;;;;5004987;28;20489;-68
2022/02/09 21:06:21;;;;;;;11.98;6.22;;;8.90;99.90;;;;;;4999829;28;20533;-67
2022/02/09 21:09:04;;;;;;;14.23;5.75;;;8.90;99.90;;;;;;5000648;28;20034;-66
2022/02/09 21:11:46;;;;;;;14.73;6.10;;;8.90;99.90;;;;;;5000406;28;20521;-67
2022/02/09 21:17:03;;;;;;;26.25;8.52;;;8.90;99.90;;;;;;4994301;28;20089;-68
2022/02/09 21:19:44;;;;;;;13.43;6.13;;;8.90;99.90;;;;;;4998616;28;20030;-68
2022/02/09 21:54:28;;;;;;;16.33;7.43;;;8.80;99.90;;;;;;4997560;28;20041;-66
2022/02/09 21:57:14;;;;;;;25.30;8.98;;;8.80;99.90;;;;;;5000357;28;20045;-68
2022/02/09 22:19:33;;;;;;;17.90;7.70;;;8.80;99.90;;;;;;4979810;28;20457;-65
2022/02/09 22:22:39;;;;;;;22.58;8.45;;;8.70;99.90;;;;;;4998510;28;20042;-65
2022/02/09 22:27:51;;;;;;;20.23;7.80;;;8.80;99.90;;;;;;4996055;28;20085;-66
2022/02/09 22:49:38;;;;;;;23.63;10.32;;;8.90;99.90;;;;;;5000263;28;20036;-69
2022/02/09 22:54:41;;;;;;;23.13;10.20;;;8.90;99.90;;;;;;4997597;28;20041;-67
2022/02/09 22:57:06;;;;;;;20.88;9.57;;;8.90;99.90;;;;;;4997003;28;20037;-67
2022/02/09 22:59:43;;;;;;;22.58;10.57;;;8.90;99.90;;;;;;5004716;28;20033;-68
2022/02/09 23:02:25;;;;;;;19.98;9.73;;;8.90;99.90;;;;;;4998098;28;20031;-68
2022/02/09 23:07:46;;;;;;;22.80;10.20;;;8.90;99.90;;;;;;5004113;28;20073;-66
2022/02/09 23:10:22;;;;;;;23.80;10.68;;;8.90;99.90;;;;;;4999191;28;20487;-68
2022/02/09 23:13:01;;;;;;;26.27;10.43;;;8.90;99.90;;;;;;5008438;23;20054;-62
2022/02/09 23:15:42;;;;;;;25.92;10.25;;;8.90;99.90;;;;;;5012987;28;20402;-61
2022/02/09 23:26:57;;;;;;;24.13;9.50;;;8.90;99.90;;;;;;5002033;28;20045;-61
